createdAt,value
2018-06-05T00:01:34.455Z,20.61
2018-06-05T00:04:03.524Z,20.62
2018-06-05T00:06:32.458Z,20.64
2018-06-05T00:09:01.386Z,20.66
2018-06-05T00:11:31.036Z,20.66
2018-06-05T00:14:00.552Z,20.68
2018-06-05T00:16:29.468Z,20.60
2018-06-05T00:18:58.427Z,20.57
2018-06-05T00:21:27.407Z,20.56
2018-06-05T00:23:56.882Z,20.52
2018-06-05T00:26:26.676Z,20.50
2018-06-05T00:28:55.607Z,20.45
2018-06-05T00:31:24.578Z,20.37
2018-06-05T00:33:53.608Z,20.29
2018-06-05T00:36:24.105Z,20.18
2018-06-05T00:38:54.039Z,20.07
2018-06-05T00:41:22.963Z,19.94
2018-06-05T00:43:53.112Z,19.82
2018-06-05T00:46:22.099Z,19.75
2018-06-05T00:48:50.988Z,19.70
2018-06-05T00:51:30.744Z,19.69
2018-06-05T00:53:59.669Z,19.63
2018-06-05T00:56:28.689Z,19.62
2018-06-05T00:58:58.004Z,19.58
2018-06-05T01:01:26.955Z,19.62
2018-06-05T01:03:55.877Z,19.66
2018-06-05T01:06:25.855Z,19.72
2018-06-05T01:08:54.844Z,19.76
2018-06-05T01:11:23.747Z,19.80
2018-06-05T01:13:52.757Z,19.79
2018-06-05T01:16:22.482Z,19.71
2018-06-05T01:18:51.438Z,19.66
2018-06-05T01:21:20.520Z,19.53
2018-06-05T01:23:50.073Z,19.48
2018-06-05T01:26:21.099Z,19.42
2018-06-05T01:28:50.035Z,19.39
2018-06-05T01:31:18.992Z,19.34
2018-06-05T01:33:48.576Z,19.29
2018-06-05T01:36:18.134Z,19.24
2018-06-05T01:38:47.067Z,19.21
2018-06-05T01:41:16.248Z,19.11
2018-06-05T01:43:45.247Z,19.06
2018-06-05T01:46:14.184Z,19.05
2018-06-05T01:48:43.175Z,19.01
2018-06-05T01:51:12.144Z,18.95
2018-06-05T01:53:41.157Z,18.91
2018-06-05T01:56:11.940Z,18.88
2018-06-05T01:58:40.837Z,18.89
2018-06-05T02:01:09.945Z,18.88
2018-06-05T02:03:38.955Z,18.87
2018-06-05T02:06:09.145Z,18.90
2018-06-05T02:08:38.759Z,18.91
2018-06-05T02:11:07.684Z,18.89
2018-06-05T02:13:36.597Z,18.91
2018-06-05T02:16:06.942Z,18.93
2018-06-05T02:18:35.961Z,18.94
2018-06-05T02:21:04.884Z,18.96
2018-06-05T02:23:33.913Z,19.00
2018-06-05T02:26:02.931Z,19.00
2018-06-05T02:28:35.064Z,19.00
2018-06-05T02:31:04.071Z,18.99
2018-06-05T02:33:32.986Z,18.98
2018-06-05T02:36:02.077Z,18.97
2018-06-05T02:38:30.980Z,18.93
2018-06-05T02:40:59.914Z,18.87
2018-06-05T02:43:29.060Z,18.84
2018-06-05T02:45:58.002Z,18.80
2018-06-05T02:48:27.711Z,18.77
2018-06-05T02:50:56.812Z,18.76
2018-06-05T02:53:25.792Z,18.72
2018-06-05T02:55:54.723Z,18.68
2018-06-05T02:58:23.677Z,18.64
2018-06-05T03:00:52.605Z,18.61
2018-06-05T03:03:21.927Z,18.66
2018-06-05T03:05:52.432Z,18.69
2018-06-05T03:08:21.389Z,18.70
2018-06-05T03:10:50.402Z,18.71
2018-06-05T03:13:19.433Z,18.68
2018-06-05T03:15:48.396Z,18.69
2018-06-05T03:18:17.372Z,18.70
2018-06-05T03:20:46.467Z,18.72
2018-06-05T03:23:15.417Z,18.72
2018-06-05T03:25:44.427Z,18.67
2018-06-05T03:28:14.295Z,18.70
2018-06-05T03:30:44.312Z,18.77
2018-06-05T03:33:13.763Z,18.81
2018-06-05T03:35:42.793Z,18.87
2018-06-05T03:38:11.726Z,18.90
2018-06-05T03:40:40.696Z,18.95
2018-06-05T03:43:09.605Z,19.00
2018-06-05T03:45:38.572Z,19.08
2018-06-05T03:48:07.547Z,19.15
2018-06-05T03:50:36.495Z,19.22
2018-06-05T03:53:05.521Z,19.27
2018-06-05T03:55:34.528Z,19.28
2018-06-05T03:58:03.716Z,19.36
2018-06-05T04:00:32.641Z,19.44
2018-06-05T04:03:01.741Z,19.50
2018-06-05T04:05:31.080Z,19.55
2018-06-05T04:08:00.028Z,19.61
2018-06-05T04:10:29.046Z,19.63
2018-06-05T04:12:57.961Z,19.70
2018-06-05T04:15:27.465Z,19.71
2018-06-05T04:17:56.523Z,19.73
2018-06-05T04:20:25.496Z,19.77
2018-06-05T04:22:54.387Z,19.78
2018-06-05T04:25:23.336Z,19.81
2018-06-05T04:27:52.240Z,19.80
2018-06-05T04:30:21.339Z,19.90
2018-06-05T04:32:50.293Z,19.92
2018-06-05T04:35:19.328Z,19.98
2018-06-05T04:37:49.106Z,20.06
2018-06-05T04:40:18.147Z,20.13
2018-06-05T04:42:47.048Z,20.17
2018-06-05T04:45:15.955Z,20.21
2018-06-05T04:47:44.936Z,20.28
2018-06-05T04:50:13.978Z,20.34
2018-06-05T04:52:43.056Z,20.51
2018-06-05T04:55:12.033Z,20.79
2018-06-05T04:57:41.016Z,21.00
2018-06-05T05:00:09.948Z,21.24
2018-06-05T05:02:38.947Z,21.49
2018-06-05T05:05:07.854Z,21.66
2018-06-05T05:07:36.906Z,21.66
2018-06-05T05:10:06.089Z,21.74
2018-06-05T05:12:35.046Z,21.96
2018-06-05T05:15:04.024Z,22.22
2018-06-05T05:17:33.125Z,22.49
2018-06-05T05:20:02.103Z,22.77
2018-06-05T05:22:31.034Z,23.07
2018-06-05T05:25:00.011Z,23.43
2018-06-05T05:27:29.712Z,23.71
2018-06-05T05:29:58.729Z,23.71
2018-06-05T05:32:27.884Z,23.86
2018-06-05T05:34:58.255Z,24.18
2018-06-05T05:37:27.275Z,24.50
2018-06-05T05:39:56.185Z,24.80
2018-06-05T05:42:25.076Z,25.10
2018-06-05T05:44:54.100Z,25.43
2018-06-05T05:47:23.019Z,25.55
2018-06-05T05:49:51.956Z,25.75
2018-06-05T05:52:22.160Z,26.01
2018-06-05T05:54:51.150Z,26.21
2018-06-05T05:57:20.168Z,26.43
2018-06-05T05:59:49.194Z,26.40
2018-06-05T06:02:18.091Z,26.33
2018-06-05T06:04:47.066Z,26.51
2018-06-05T06:07:16.175Z,26.29
2018-06-05T06:09:45.357Z,26.23
2018-06-05T06:12:14.288Z,26.46
2018-06-05T06:14:43.452Z,26.68
2018-06-05T06:17:13.282Z,26.72
2018-06-05T06:19:42.338Z,26.81
2018-06-05T06:22:11.364Z,26.70
2018-06-05T06:24:40.877Z,26.61
2018-06-05T06:27:09.791Z,26.65
2018-06-05T06:29:38.927Z,26.56
2018-06-05T06:32:07.944Z,26.21
2018-06-05T06:34:36.888Z,26.32
2018-06-05T06:37:05.863Z,26.34
2018-06-05T06:39:34.800Z,26.02
2018-06-05T06:42:03.876Z,25.93
2018-06-05T06:44:32.830Z,25.92
2018-06-05T06:47:01.791Z,26.08
2018-06-05T06:49:30.727Z,26.28
2018-06-05T06:52:00.810Z,26.16
2018-06-05T06:54:29.724Z,26.31
2018-06-05T06:56:59.448Z,26.30
2018-06-05T06:59:28.568Z,26.45
2018-06-05T07:01:57.569Z,26.76
2018-06-05T07:04:27.526Z,27.07
2018-06-05T07:06:56.599Z,27.31
2018-06-05T07:09:27.195Z,27.32
2018-06-05T07:11:56.433Z,27.32
2018-06-05T07:14:25.392Z,27.06
2018-06-05T07:16:55.075Z,26.79
2018-06-05T07:19:24.853Z,26.74
2018-06-05T07:21:53.833Z,26.89
2018-06-05T07:24:22.771Z,26.69
2018-06-05T07:26:51.740Z,26.56
2018-06-05T07:29:20.735Z,26.80
2018-06-05T07:31:49.673Z,27.06
2018-06-05T07:34:18.775Z,27.38
2018-06-05T07:36:47.741Z,27.68
2018-06-05T07:39:16.673Z,27.88
2018-06-05T07:41:46.667Z,27.99
2018-06-05T07:44:15.579Z,27.69
2018-06-05T07:46:44.567Z,27.62
2018-06-05T07:49:13.751Z,27.56
2018-06-05T07:51:42.724Z,27.51
2018-06-05T07:54:11.744Z,27.15
2018-06-05T07:56:40.850Z,26.95
2018-06-05T07:59:10.335Z,26.93
2018-06-05T08:01:39.291Z,26.75
2018-06-05T08:04:08.349Z,26.60
2018-06-05T08:06:39.333Z,26.55
2018-06-05T08:09:11.030Z,26.96
2018-06-05T08:11:40.462Z,27.21
2018-06-05T08:14:09.536Z,27.20
2018-06-05T08:16:38.930Z,27.32
2018-06-05T08:19:07.869Z,27.70
2018-06-05T08:21:36.849Z,28.15
2018-06-05T08:24:06.361Z,28.27
2018-06-05T08:26:50.835Z,28.50
2018-06-05T08:29:20.477Z,28.83
2018-06-05T08:31:49.559Z,29.11
2018-06-05T08:34:18.469Z,28.76
2018-06-05T08:36:47.435Z,28.57
2018-06-05T08:39:16.741Z,28.55
2018-06-05T08:41:45.737Z,28.63
2018-06-05T08:44:18.171Z,28.92
2018-06-05T08:46:47.104Z,29.21
2018-06-05T08:49:16.076Z,29.42
2018-06-05T08:51:45.132Z,29.42
2018-06-05T08:54:14.147Z,29.39
2018-06-05T08:56:43.074Z,29.10
2018-06-05T08:59:12.038Z,28.62
2018-06-05T09:01:40.991Z,28.35
2018-06-05T09:04:10.607Z,27.90
2018-06-05T09:06:39.685Z,27.08
2018-06-05T09:09:09.440Z,26.66
2018-06-05T09:11:38.419Z,25.83
2018-06-05T09:14:07.487Z,25.41
2018-06-05T09:16:36.467Z,25.03
2018-06-05T09:19:05.565Z,22.87
2018-06-05T09:21:35.541Z,21.70
2018-06-05T09:24:04.710Z,21.18
2018-06-05T09:26:33.672Z,20.87
2018-06-05T09:29:02.772Z,20.75
2018-06-05T09:31:31.910Z,20.66
2018-06-05T09:34:01.036Z,20.73
2018-06-05T09:36:30.826Z,21.03
2018-06-05T09:39:00.768Z,21.60
2018-06-05T09:41:29.831Z,22.18
2018-06-05T09:43:59.083Z,22.85
2018-06-05T09:46:28.171Z,23.44
2018-06-05T09:48:57.193Z,24.05
2018-06-05T09:51:26.280Z,24.59
2018-06-05T09:53:56.284Z,25.10
2018-06-05T09:56:25.239Z,25.30
2018-06-05T09:58:54.948Z,25.37
2018-06-05T10:01:23.951Z,25.71
2018-06-05T10:03:52.989Z,26.03
2018-06-05T10:06:22.077Z,26.35
2018-06-05T10:08:51.569Z,26.76
2018-06-05T10:11:20.516Z,27.16
2018-06-05T10:13:50.158Z,27.22
2018-06-05T10:16:19.241Z,27.19
2018-06-05T10:18:48.637Z,27.09
2018-06-05T10:21:17.736Z,27.00
2018-06-05T10:23:47.276Z,26.95
2018-06-05T10:26:16.272Z,26.87
2018-06-05T10:28:45.349Z,26.71
2018-06-05T10:31:14.301Z,26.76
2018-06-05T10:33:44.137Z,26.86
2018-06-05T10:36:13.816Z,27.15
2018-06-05T10:38:43.448Z,27.56
2018-06-05T10:41:12.551Z,28.04
2018-06-05T10:43:42.036Z,28.36
2018-06-05T10:46:11.178Z,28.60
2018-06-05T10:48:40.132Z,28.77
2018-06-05T10:51:09.044Z,29.07
2018-06-05T10:53:37.945Z,29.08
2018-06-05T10:56:06.970Z,29.19
2018-06-05T10:58:36.822Z,29.45
2018-06-05T11:01:05.867Z,29.69
2018-06-05T11:03:34.792Z,29.92
2018-06-05T11:06:03.739Z,30.20
2018-06-05T11:08:33.643Z,30.40
2018-06-05T11:11:02.673Z,30.38
2018-06-05T11:13:31.593Z,30.24
2018-06-05T11:16:03.306Z,30.54
2018-06-05T11:18:32.201Z,30.47
2018-06-05T11:21:01.233Z,29.87
2018-06-05T11:23:30.220Z,28.87
2018-06-05T11:25:59.751Z,27.81
2018-06-05T11:28:28.685Z,27.21
2018-06-05T11:30:57.719Z,26.81
2018-06-05T11:33:26.747Z,26.37
2018-06-05T11:35:55.753Z,25.79
2018-06-05T11:38:24.904Z,25.51
2018-06-05T11:40:54.860Z,25.29
2018-06-05T11:43:23.995Z,25.13
2018-06-05T11:45:52.995Z,25.12
2018-06-05T11:48:22.297Z,25.42
2018-06-05T11:50:51.279Z,25.63
2018-06-05T11:53:20.346Z,25.87
2018-06-05T11:55:49.810Z,26.27
2018-06-05T11:58:18.798Z,26.64
2018-06-05T12:00:48.392Z,26.98
2018-06-05T12:03:17.356Z,27.40
2018-06-05T12:05:46.337Z,27.75
2018-06-05T12:08:15.299Z,28.14
2018-06-05T12:10:44.844Z,28.47
2018-06-05T12:13:14.967Z,28.76
2018-06-05T12:15:43.966Z,28.66
2018-06-05T12:18:13.007Z,28.73
2018-06-05T12:20:41.940Z,28.86
2018-06-05T12:23:11.145Z,28.64
2018-06-05T12:25:40.114Z,28.89
2018-06-05T12:28:09.240Z,28.68
2018-06-05T12:30:38.222Z,28.65
2018-06-05T12:33:07.283Z,28.84
2018-06-05T12:35:36.258Z,28.81
2018-06-05T12:38:05.248Z,28.72
2018-06-05T12:40:34.174Z,28.41
2018-06-05T12:43:03.286Z,28.33
2018-06-05T12:45:32.192Z,28.19
2018-06-05T12:48:01.095Z,28.02
2018-06-05T12:50:30.050Z,27.90
2018-06-05T12:52:59.028Z,27.79
2018-06-05T12:55:28.728Z,27.71
2018-06-05T12:57:57.732Z,27.58
2018-06-05T13:00:26.603Z,27.68
2018-06-05T13:02:55.528Z,27.90
2018-06-05T13:05:24.650Z,28.05
2018-06-05T13:07:53.555Z,28.18
2018-06-05T13:10:22.535Z,28.29
2018-06-05T13:12:51.630Z,28.31
2018-06-05T13:15:20.640Z,28.09
2018-06-05T13:17:50.149Z,28.04
2018-06-05T13:20:19.432Z,28.00
2018-06-05T13:22:48.358Z,27.99
2018-06-05T13:25:18.457Z,27.82
2018-06-05T13:27:47.427Z,27.71
2018-06-05T13:30:17.144Z,27.60
2018-06-05T13:32:46.040Z,27.51
2018-06-05T13:35:15.099Z,27.49
2018-06-05T13:37:44.008Z,27.33
2018-06-05T13:40:13.002Z,27.05
2018-06-05T13:42:42.060Z,26.88
2018-06-05T13:45:11.012Z,26.67
2018-06-05T13:47:40.592Z,26.50
2018-06-05T13:50:10.347Z,26.29
2018-06-05T13:52:39.267Z,25.98
2018-06-05T13:55:08.935Z,25.78
2018-06-05T13:57:37.887Z,25.61
2018-06-05T14:00:07.166Z,25.53
2018-06-05T14:02:36.078Z,25.45
2018-06-05T14:05:05.104Z,25.35
2018-06-05T14:07:34.082Z,25.32
2018-06-05T14:10:03.031Z,25.28
2018-06-05T14:12:32.150Z,25.16
2018-06-05T14:15:01.136Z,25.10
2018-06-05T14:17:30.762Z,25.03
2018-06-05T14:19:59.694Z,24.99
2018-06-05T14:22:28.617Z,24.98
2018-06-05T14:24:57.580Z,24.96
2018-06-05T14:27:26.684Z,24.97
2018-06-05T14:29:55.674Z,25.02
2018-06-05T14:32:24.645Z,25.11
2018-06-05T14:34:53.807Z,25.20
2018-06-05T14:37:22.748Z,25.34
2018-06-05T14:39:51.791Z,25.53
2018-06-05T14:42:20.916Z,25.71
2018-06-05T14:44:51.166Z,25.84
2018-06-05T14:47:20.143Z,26.05
2018-06-05T14:49:49.203Z,26.22
2018-06-05T14:52:18.776Z,26.38
2018-06-05T14:54:47.816Z,26.49
2018-06-05T14:57:16.784Z,26.56
2018-06-05T14:59:46.478Z,26.68
2018-06-05T15:02:15.450Z,26.80
2018-06-05T15:04:44.412Z,26.90
2018-06-05T15:07:13.378Z,26.99
2018-06-05T15:09:42.296Z,27.07
2018-06-05T15:12:11.357Z,27.15
2018-06-05T15:14:40.923Z,27.23
2018-06-05T15:17:09.952Z,27.27
2018-06-05T15:19:38.909Z,27.27
2018-06-05T15:22:07.813Z,27.32
2018-06-05T15:24:36.924Z,27.33
2018-06-05T15:27:06.104Z,27.34
2018-06-05T15:29:35.512Z,27.36
2018-06-05T15:32:04.559Z,27.35
2018-06-05T15:34:33.580Z,27.40
2018-06-05T15:37:03.489Z,27.43
2018-06-05T15:39:32.598Z,27.40
2018-06-05T15:42:01.644Z,27.35
2018-06-05T15:44:30.632Z,27.30
2018-06-05T15:46:59.638Z,27.28
2018-06-05T15:49:28.655Z,27.28
2018-06-05T15:51:57.759Z,27.28
2018-06-05T15:54:26.718Z,27.25
2018-06-05T15:56:56.425Z,27.23
2018-06-05T15:59:26.672Z,27.17
2018-06-05T16:01:56.286Z,27.13
2018-06-05T16:04:25.293Z,27.11
2018-06-05T16:06:54.675Z,27.04
2018-06-05T16:09:23.624Z,27.01
2018-06-05T16:11:52.542Z,26.99
2018-06-05T16:14:21.469Z,26.94
2018-06-05T16:16:50.505Z,26.92
2018-06-05T16:19:19.430Z,26.90
2018-06-05T16:21:48.349Z,26.90
2018-06-05T16:24:17.369Z,26.91
2018-06-05T16:26:46.376Z,26.91
2018-06-05T16:29:15.370Z,26.91
2018-06-05T16:31:44.380Z,26.92
2018-06-05T16:34:13.320Z,26.90
2018-06-05T16:36:42.337Z,26.89
2018-06-05T16:39:11.784Z,26.85
2018-06-05T16:41:40.733Z,26.81
2018-06-05T16:44:09.680Z,26.75
2018-06-05T16:46:39.783Z,26.66
2018-06-05T16:49:08.699Z,26.58
2018-06-05T16:51:37.629Z,26.51
2018-06-05T16:54:07.004Z,26.38
2018-06-05T16:56:36.029Z,26.27
2018-06-05T16:59:05.032Z,26.13
2018-06-05T17:01:34.040Z,25.94
2018-06-05T17:04:03.011Z,25.84
2018-06-05T17:06:31.912Z,25.80
2018-06-05T17:09:00.990Z,25.67
2018-06-05T17:11:29.923Z,25.59
2018-06-05T17:13:58.912Z,25.55
2018-06-05T17:16:27.880Z,25.49
2018-06-05T17:18:57.577Z,25.42
2018-06-05T17:21:26.622Z,25.36
2018-06-05T17:23:55.680Z,25.30
2018-06-05T17:26:24.595Z,25.25
2018-06-05T17:28:53.604Z,25.16
2018-06-05T17:31:22.589Z,25.09
2018-06-05T17:33:51.736Z,24.97
2018-06-05T17:36:20.831Z,24.85
2018-06-05T17:38:49.807Z,24.70
2018-06-05T17:41:18.846Z,24.57
2018-06-05T17:43:47.868Z,24.49
2018-06-05T17:46:17.575Z,24.43
2018-06-05T17:48:46.557Z,24.37
2018-06-05T17:51:15.544Z,24.35
2018-06-05T17:53:44.675Z,24.31
2018-06-05T17:56:13.644Z,24.28
2018-06-05T17:58:42.612Z,24.18
2018-06-05T18:01:11.692Z,24.14
2018-06-05T18:03:40.636Z,24.10
2018-06-05T18:06:09.600Z,23.98
2018-06-05T18:08:38.792Z,23.84
2018-06-05T18:11:08.025Z,23.39
2018-06-05T18:13:37.243Z,22.92
2018-06-05T18:16:06.354Z,22.57
2018-06-05T18:18:35.371Z,22.39
2018-06-05T18:21:04.466Z,22.27
2018-06-05T18:23:33.429Z,22.19
2018-06-05T18:26:02.384Z,22.17
2018-06-05T18:28:31.840Z,22.20
2018-06-05T18:31:00.849Z,22.27
2018-06-05T18:33:29.812Z,22.36
2018-06-05T18:35:58.964Z,22.44
2018-06-05T18:38:28.075Z,22.50
2018-06-05T18:40:57.074Z,22.54
2018-06-05T18:43:26.559Z,22.62
2018-06-05T18:45:55.570Z,22.71
2018-06-05T18:48:24.534Z,22.77
2018-06-05T18:50:53.433Z,22.80
2018-06-05T18:53:22.462Z,22.84
2018-06-05T18:55:51.437Z,22.84
2018-06-05T18:58:20.411Z,22.85
2018-06-05T19:00:49.446Z,22.84
2018-06-05T19:03:18.381Z,22.84
2018-06-05T19:05:47.287Z,22.83
2018-06-05T19:08:16.515Z,22.83
2018-06-05T19:10:45.504Z,22.84
2018-06-05T19:13:14.508Z,22.85
2018-06-05T19:15:43.626Z,22.84
2018-06-05T19:18:12.918Z,22.84
2018-06-05T19:20:41.921Z,22.87
2018-06-05T19:23:11.070Z,22.87
2018-06-05T19:25:39.991Z,22.85
2018-06-05T19:28:09.328Z,22.83
2018-06-05T19:30:38.335Z,22.82
2018-06-05T19:33:07.322Z,22.81
2018-06-05T19:35:36.599Z,22.81
2018-06-05T19:38:05.765Z,22.80
2018-06-05T19:40:34.692Z,22.79
2018-06-05T19:43:03.989Z,22.77
2018-06-05T19:45:33.093Z,22.75
2018-06-05T19:48:02.630Z,22.75
2018-06-05T19:50:32.057Z,22.74
2018-06-05T19:53:01.252Z,22.74
2018-06-05T19:55:30.235Z,22.68
2018-06-05T19:57:59.297Z,22.66
2018-06-05T20:00:30.531Z,22.61
2018-06-05T20:02:59.820Z,22.60
2018-06-05T20:05:28.828Z,22.59
2018-06-05T20:07:57.783Z,22.58
2018-06-05T20:10:26.763Z,22.57
2018-06-05T20:12:55.688Z,22.56
2018-06-05T20:15:25.491Z,22.54
2018-06-05T20:17:54.484Z,22.52
2018-06-05T20:20:23.406Z,22.49
2018-06-05T20:22:52.399Z,22.47
2018-06-05T20:25:21.408Z,22.47
2018-06-05T20:27:50.466Z,22.45
2018-06-05T20:30:20.237Z,22.46
2018-06-05T20:32:49.767Z,22.43
2018-06-05T20:35:18.716Z,22.39
2018-06-05T20:37:48.552Z,22.36
2018-06-05T20:40:17.580Z,22.33
2018-06-05T20:42:46.585Z,22.30
2018-06-05T20:45:15.546Z,22.26
2018-06-05T20:47:44.520Z,22.24
2018-06-05T20:50:14.367Z,22.23
2018-06-05T20:52:43.373Z,22.19
2018-06-05T20:55:14.333Z,22.15
2018-06-05T20:57:43.343Z,22.11
2018-06-05T21:00:13.226Z,22.09
2018-06-05T21:02:42.262Z,22.07
2018-06-05T21:05:11.821Z,22.03
2018-06-05T21:07:40.755Z,22.01
2018-06-05T21:12:37.516Z,21.97
2018-06-05T21:15:06.529Z,21.96
2018-06-05T21:17:35.460Z,21.96
2018-06-05T21:20:05.183Z,21.92
2018-06-05T21:22:34.148Z,21.90
2018-06-05T21:25:03.082Z,21.87
2018-06-05T21:27:32.168Z,21.85
2018-06-05T21:30:01.156Z,21.81
2018-06-05T21:32:30.055Z,21.78
2018-06-05T21:35:00.065Z,21.75
2018-06-05T21:37:28.983Z,21.74
2018-06-05T21:39:57.873Z,21.73
2018-06-05T21:42:27.011Z,21.69
2018-06-05T21:44:55.951Z,21.65
2018-06-05T21:47:24.948Z,21.60
2018-06-05T21:49:53.940Z,21.56
2018-06-05T21:52:22.866Z,21.53
2018-06-05T21:54:51.768Z,21.51
2018-06-05T21:57:20.731Z,21.49
2018-06-05T21:59:49.663Z,21.44
2018-06-05T22:02:18.619Z,21.40
2018-06-05T22:04:47.627Z,21.38
2018-06-05T22:07:16.543Z,21.32
2018-06-05T22:09:45.476Z,21.28
2018-06-05T22:12:14.455Z,21.27
2018-06-05T22:14:43.371Z,21.26
2018-06-05T22:17:15.407Z,21.24
2018-06-05T22:19:44.292Z,21.23
2018-06-05T22:22:13.223Z,21.22
2018-06-05T22:24:42.187Z,21.18
2018-06-05T22:27:11.249Z,21.15
2018-06-05T22:29:40.175Z,21.13
2018-06-05T22:32:09.286Z,21.12
2018-06-05T22:34:38.187Z,21.11
2018-06-05T22:37:07.149Z,21.09
2018-06-05T22:39:36.948Z,21.05
2018-06-05T22:42:05.899Z,21.00
2018-06-05T22:44:34.900Z,21.01
2018-06-05T22:47:03.959Z,21.01
2018-06-05T22:49:33.648Z,21.01
2018-06-05T22:52:02.579Z,21.00
2018-06-05T22:54:33.519Z,20.99
2018-06-05T22:57:02.955Z,20.98
2018-06-05T22:59:32.062Z,20.98
2018-06-05T23:02:00.966Z,21.01
2018-06-05T23:04:30.045Z,21.03
2018-06-05T23:06:59.109Z,21.06
2018-06-05T23:09:28.776Z,21.03
2018-06-05T23:11:57.707Z,21.03
2018-06-05T23:14:26.648Z,21.05
2018-06-05T23:16:55.550Z,21.06
2018-06-05T23:19:24.459Z,21.05
2018-06-05T23:21:53.483Z,21.03
2018-06-05T23:24:22.410Z,20.98
2018-06-05T23:26:51.348Z,20.95
2018-06-05T23:29:20.422Z,20.89
2018-06-05T23:31:49.323Z,20.81
2018-06-05T23:34:18.851Z,20.75
2018-06-05T23:36:47.828Z,20.70
2018-06-05T23:39:16.888Z,20.70
2018-06-05T23:41:45.819Z,20.72
2018-06-05T23:44:14.958Z,20.71
2018-06-05T23:46:44.089Z,20.69
2018-06-05T23:49:13.247Z,20.65
2018-06-05T23:51:42.292Z,20.59
2018-06-05T23:54:11.345Z,20.51
2018-06-05T23:56:40.280Z,20.43
2018-06-05T23:59:09.371Z,20.39
